Time;durP1;ratioP1;P1;durP2;ratioP2;P2;SDS_P1;SDS_P2;PMS_P1;PMS_P2;Temp;Humidity;BMP_temperature;BMP_pressure;BME280_temperature;BME280_humidity;BME280_pressure;Samples;Min_cycle;Max_cycle;Signal;HPM_P1;HPM_P2
2022/09/05 00:11:33;;;;;;;10.80;9.10;;;;;;;11.52;72.76;99523.73;433027;1269;109105;-40
2022/09/05 00:22:21;;;;;;;13.60;11.10;;;;;;;11.31;73.00;99522.75;432872;1269;99159;-40
2022/09/05 00:32:49;;;;;;;15.00;10.60;;;;;;;11.06;73.01;99521.53;432734;1270;109009;-40
2022/09/05 00:43:14;;;;;;;13.90;9.80;;;;;;;10.94;73.22;99520.02;432982;1269;99781;-40
2022/09/05 00:53:38;;;;;;;20.00;10.70;;;;;;;10.91;73.50;99518.52;432725;1270;110370;-41
2022/09/05 01:04:06;;;;;;;17.90;12.40;;;;;;;10.88;73.68;99518.85;432856;1269;109338;-40
2022/09/05 01:14:50;;;;;;;18.00;12.00;;;;;;;10.62;73.68;99528.78;433004;1269;99922;-41
2022/09/05 01:25:19;;;;;;;17.70;10.00;;;;;;;10.32;73.68;99540.02;433061;1261;100098;-42
2022/09/05 01:36:14;;;;;;;10.90;8.20;;;;;;;10.24;73.74;99539.73;432988;1269;99372;-42
2022/09/05 01:46:42;;;;;;;12.30;8.30;;;;;;;9.99;73.93;99555.55;433253;1270;112861;-40
2022/09/05 01:57:07;;;;;;;21.30;13.10;;;;;;;9.97;74.26;99555.27;433341;1270;109019;-42
2022/09/05 02:07:34;;;;;;;20.30;13.20;;;;;;;9.86;74.62;99553.05;433360;1270;99266;-42
2022/09/05 02:18:01;;;;;;;17.40;10.50;;;;;;;9.80;74.63;99551.76;433006;1269;109073;-42
2022/09/05 02:28:24;;;;;;;14.70;9.20;;;;;;;9.64;74.43;99552.91;433083;1270;99123;-41
2022/09/05 02:38:56;;;;;;;15.30;10.10;;;;;;;9.48;74.55;99550.45;433319;1269;112739;-41
2022/09/05 02:49:47;;;;;;;19.70;11.60;;;;;;;9.37;74.81;99540.17;433376;1270;108463;-41
2022/09/05 03:00:35;;;;;;;16.50;11.60;;;;;;;9.15;75.03;99538.75;433455;1270;99237;-42
2022/09/05 03:11:45;;;;;;;18.80;10.10;;;;;;;9.04;75.03;99540.61;433278;1270;109056;-42
2022/09/05 03:33:36;;;;;;;23.50;12.90;;;;;;;9.05;75.26;99545.69;432631;1269;112750;-42
2022/09/05 03:44:21;;;;;;;87.00;17.00;;;;;;;9.20;75.68;99550.36;433195;1269;109215;-42
2022/09/05 03:55:01;;;;;;;30.40;13.10;;;;;;;9.08;75.55;99556.09;432736;1269;98020;-42
2022/09/05 04:05:51;;;;;;;21.70;12.40;;;;;;;8.89;75.47;99563.64;433165;1270;109025;-42
2022/09/05 04:16:55;;;;;;;16.40;11.10;;;;;;;8.69;75.39;99567.58;433253;1270;98828;-40
2022/09/05 04:27:30;;;;;;;29.40;11.90;;;;;;;8.77;75.61;99575.14;433468;1270;112787;-43
2022/09/05 04:37:54;;;;;;;23.90;11.00;;;;;;;8.72;75.30;99587.28;433291;1270;111659;-41
2022/09/05 04:48:16;;;;;;;30.70;14.90;;;;;;;8.67;75.58;99598.56;433257;1270;99243;-41
2022/09/05 04:58:49;;;;;;;46.60;17.60;;;;;;;8.65;75.73;99605.29;433354;1270;109137;-41
2022/09/05 05:09:39;;;;;;;54.80;17.70;;;;;;;8.89;76.08;99620.69;433710;1270;98011;-41
2022/09/05 05:20:07;;;;;;;31.20;18.70;;;;;;;10.16;76.77;99631.66;433216;1270;112736;-41
2022/09/05 05:30:52;;;;;;;18.60;13.60;;;;;;;11.92;76.54;99632.13;433038;1270;109069;-43
2022/09/05 05:41:33;;;;;;;16.20;11.00;;;;;;;13.36;75.85;99632.98;433366;1269;98837;-46
2022/09/05 05:52:39;;;;;;;16.50;10.30;;;;;;;14.29;75.08;99642.25;433312;1269;109280;-43
2022/09/05 06:03:47;;;;;;;12.70;8.70;;;;;;;15.12;74.25;99646.52;431932;1270;98901;-40
2022/09/05 06:14:47;;;;;;;15.80;9.80;;;;;;;15.76;73.56;99644.14;431420;1270;1458688;-40
2022/09/05 06:25:59;;;;;;;18.60;10.90;;;;;;;16.13;72.77;99644.86;433383;1269;108139;-41
2022/09/05 06:36:26;;;;;;;12.60;8.70;;;;;;;16.74;72.06;99645.99;432537;1270;98847;-42
2022/09/05 06:46:49;;;;;;;9.50;7.70;;;;;;;17.52;70.94;99648.16;432954;1270;109355;-43
2022/09/05 06:57:48;;;;;;;9.70;7.20;;;;;;;17.97;69.47;99659.16;432983;1270;98811;-41
2022/09/05 07:08:19;;;;;;;8.40;6.30;;;;;;;18.05;68.59;99662.39;433126;1270;112789;-41
2022/09/05 07:19:05;;;;;;;12.40;7.10;;;;;;;18.31;67.94;99665.41;432853;1270;109114;-41
2022/09/05 07:29:36;;;;;;;8.80;6.70;;;;;;;18.24;67.16;99668.19;432950;1270;98056;-42
2022/09/05 07:50:46;;;;;;;8.00;6.10;;;;;;;18.67;65.66;99677.46;433013;1269;98735;-42
2022/09/05 08:01:32;;;;;;;8.70;6.30;;;;;;;18.64;65.43;99678.66;433053;1270;112752;-40
2022/09/05 08:12:10;;;;;;;6.50;5.90;;;;;;;19.04;64.82;99681.83;432956;1270;109098;-41
2022/09/05 08:22:39;;;;;;;7.90;5.80;;;;;;;19.45;64.47;99679.25;433045;1269;99225;-41
2022/09/05 08:33:11;;;;;;;7.60;5.70;;;;;;;19.69;62.54;99675.54;432967;1269;109060;-40
2022/09/05 09:04:57;;;;;;;8.60;4.80;;;;;;;20.03;60.42;99649.60;433155;1269;109105;-40
2022/09/05 09:15:35;;;;;;;7.10;4.40;;;;;;;20.05;59.37;99644.71;432979;1270;98957;-40
2022/09/05 09:25:58;;;;;;;5.20;4.30;;;;;;;20.13;58.72;99641.39;433248;1270;108114;-40
2022/09/05 09:36:31;;;;;;;6.80;5.10;;;;;;;20.27;58.02;99640.92;433229;1270;99244;-40
2022/09/05 09:46:56;;;;;;;5.40;4.40;;;;;;;20.49;57.45;99632.33;433247;1270;112780;-40
2022/09/05 09:57:50;;;;;;;4.50;4.10;;;;;;;20.88;56.42;99624.81;433118;1269;109008;-41
2022/09/05 10:08:39;;;;;;;4.70;3.20;;;;;;;21.13;55.14;99630.28;433226;1269;98042;-41
2022/09/05 10:19:59;;;;;;;4.40;3.00;;;;;;;21.25;54.02;99618.80;433081;1269;109213;-41
2022/09/05 10:30:46;;;;;;;2.60;2.20;;;;;;;21.45;53.09;99607.13;433060;1270;99268;-40
2022/09/05 10:41:42;;;;;;;3.20;2.90;;;;;;;20.76;52.77;99605.80;433376;1270;111317;-41
2022/09/05 10:52:06;;;;;;;5.10;2.10;;;;;;;21.08;51.34;99596.67;432827;1270;108005;-41
2022/09/05 11:02:45;;;;;;;5.70;2.80;;;;;;;21.47;51.10;99578.83;432661;1269;99341;-43
2022/09/05 11:13:15;;;;;;;2.50;2.30;;;;;;;21.26;49.70;99578.38;433207;1270;109091;-39
2022/09/05 11:23:40;;;;;;;;;;;;;;;20.57;50.30;99576.48;433566;1270;99913;-40
2022/09/05 11:34:35;;;;;;;3.00;2.50;;;;;;;20.33;50.63;99576.19;433108;1269;115039;-39
2022/09/05 11:45:35;;;;;;;4.90;3.00;;;;;;;21.00;50.42;99573.31;433210;1270;109111;-41
2022/09/05 11:56:37;;;;;;;2.50;2.30;;;;;;;21.28;50.71;99566.54;433287;1270;97951;-42
2022/09/05 12:07:09;;;;;;;4.00;2.60;;;;;;;21.92;50.21;99565.40;433311;1270;109073;-41
2022/09/05 12:18:16;;;;;;;2.90;2.70;;;;;;;21.68;49.14;99555.86;433132;1270;98847;-41
2022/09/05 12:28:45;;;;;;;5.10;2.70;;;;;;;21.85;49.05;99548.15;433438;1270;111087;-41
2022/09/05 12:39:36;;;;;;;5.40;2.50;;;;;;;21.57;48.63;99549.59;433265;1270;112732;-42
2022/09/05 12:50:24;;;;;;;4.50;2.60;;;;;;;21.35;48.41;99536.60;433024;1270;99272;-41
2022/09/05 13:00:50;;;;;;;3.70;2.20;;;;;;;21.45;48.09;99532.11;433289;1270;109092;-41
2022/09/05 13:11:34;;;;;;;4.80;3.00;;;;;;;21.34;47.99;99528.33;433508;1270;99142;-41
2022/09/05 13:22:22;;;;;;;2.50;2.30;;;;;;;21.49;47.78;99524.83;433225;1270;112782;-42
2022/09/05 13:32:48;;;;;;;7.20;3.30;;;;;;;21.56;48.13;99519.42;432967;1269;109206;-42
2022/09/05 13:54:15;;;;;;;5.50;2.00;;;;;;;21.62;47.82;99518.13;433239;1270;109076;-41
2022/09/05 14:04:59;;;;;;;6.80;2.30;;;;;;;21.50;47.12;99512.86;433072;1271;99268;-41
2022/09/05 14:15:49;;;;;;;5.70;2.80;;;;;;;21.43;46.58;99507.88;433049;1271;112743;-40
2022/09/05 14:26:24;;;;;;;2.70;2.40;;;;;;;21.43;47.10;99502.33;433421;1271;112245;-41
2022/09/05 14:36:55;;;;;;;5.40;3.00;;;;;;;21.43;46.83;99497.54;432880;1270;99267;-42
2022/09/05 14:47:50;;;;;;;3.00;2.80;;;;;;;21.26;46.63;99489.67;433120;1270;108808;-41
2022/09/05 14:57:59;;;;;;;6.10;2.80;;;;;;;21.06;46.72;99481.54;432963;1271;99232;-40
2022/09/05 15:08:28;;;;;;;4.70;2.60;;;;;;;20.82;46.57;99485.80;432869;1271;112427;-41
2022/09/05 15:18:55;;;;;;;8.00;3.10;;;;;;;20.47;46.24;99483.84;432498;1270;109119;-41
2022/09/05 15:29:12;;;;;;;4.40;3.30;;;;;;;20.27;47.03;99472.26;432815;1270;98833;-42
2022/09/05 15:39:24;;;;;;;8.60;3.80;;;;;;;19.99;47.68;99467.27;433032;1270;108780;-43
2022/09/05 15:49:35;;;;;;;5.60;3.10;;;;;;;19.84;48.42;99459.80;432548;1270;99260;-42
2022/09/05 15:59:47;;;;;;;3.50;3.20;;;;;;;19.82;48.23;99456.11;432660;1271;112274;-41
2022/09/05 16:09:54;;;;;;;5.00;3.20;;;;;;;19.75;48.13;99447.17;433019;1270;107947;-41
2022/09/05 16:20:26;;;;;;;13.70;3.60;;;;;;;19.62;48.39;99443.68;433115;1269;99575;-41
2022/09/05 16:31:02;;;;;;;13.50;3.70;;;;;;;19.44;48.72;99441.35;432816;1271;108878;-44
2022/09/05 16:41:07;;;;;;;6.00;3.90;;;;;;;19.24;49.20;99440.25;432511;1270;99898;-43
2022/09/05 16:51:20;;;;;;;7.70;3.70;;;;;;;18.94;49.45;99437.35;433060;1269;112074;-40
2022/09/05 17:01:48;;;;;;;7.80;3.90;;;;;;;18.59;50.12;99438.40;433076;1270;108524;-43
2022/09/05 17:12:09;;;;;;;6.50;3.90;;;;;;;18.18;50.73;99442.64;432629;1270;98005;-43
2022/09/05 17:22:16;;;;;;;7.00;3.80;;;;;;;17.77;51.18;99444.14;433066;1270;108857;-42
2022/09/05 17:32:44;;;;;;;7.30;4.20;;;;;;;17.28;52.16;99440.71;433260;1270;98936;-41
2022/09/05 17:53:07;;;;;;;9.60;4.80;;;;;;;16.24;54.08;99457.17;433056;1270;108813;-42
2022/09/05 18:03:57;;;;;;;11.50;5.70;;;;;;;15.75;55.05;99468.35;433052;1270;99263;-43
2022/09/05 18:14:40;;;;;;;16.30;7.00;;;;;;;15.55;55.27;99478.55;431385;1269;1697501;-43
2022/09/05 18:24:53;;;;;;;16.00;7.60;;;;;;;15.46;55.40;99481.17;432847;1270;98036;-41
2022/09/05 18:35:23;;;;;;;8.60;4.70;;;;;;;15.37;55.42;99483.35;432559;1269;112521;-42
2022/09/05 18:45:44;;;;;;;6.70;3.50;;;;;;;15.33;55.13;99489.36;432826;1270;108628;-40
2022/09/05 18:56:10;;;;;;;6.20;3.10;;;;;;;15.30;54.59;99492.35;432763;1270;99580;-41
2022/09/05 19:06:27;;;;;;;4.00;2.60;;;;;;;15.27;54.06;99488.68;432905;1270;108961;-42
2022/09/05 19:16:46;;;;;;;6.60;2.10;;;;;;;15.23;53.65;99486.86;432970;1270;99059;-40
2022/09/05 19:26:56;;;;;;;7.90;1.90;;;;;;;15.21;53.22;99480.85;433133;1269;112509;-40
2022/09/05 19:37:23;;;;;;;3.60;1.80;;;;;;;15.17;52.58;99480.03;432970;1270;108816;-41
2022/09/05 19:47:50;;;;;;;5.20;1.80;;;;;;;15.14;52.56;99475.96;433256;1270;99257;-40
2022/09/05 19:58:17;;;;;;;10.30;2.40;;;;;;;15.01;52.50;99466.67;432462;1270;108739;-40
2022/09/05 20:08:29;;;;;;;5.30;1.80;;;;;;;14.84;52.60;99458.20;432506;1270;99248;-39
2022/09/05 20:28:48;;;;;;;2.50;1.70;;;;;;;14.47;52.77;99459.04;433084;1269;108797;-42
2022/09/05 20:39:01;;;;;;;14.80;3.00;;;;;;;14.26;53.05;99458.14;433199;1270;99146;-43
2022/09/05 20:49:37;;;;;;;4.20;2.00;;;;;;;14.01;53.37;99453.21;433278;1269;109538;-42
2022/09/05 21:10:27;;;;;;;3.60;2.20;;;;;;;13.58;54.27;99459.70;433190;1270;112984;-42
2022/09/05 21:20:51;;;;;;;4.00;2.60;;;;;;;13.30;54.80;99462.13;433234;1269;108851;-42
2022/09/05 21:30:56;;;;;;;3.60;2.30;;;;;;;13.12;55.02;99464.41;433478;1269;98016;-42
2022/09/05 21:41:07;;;;;;;2.80;2.10;;;;;;;12.98;55.22;99471.21;433206;1270;108747;-42
2022/09/05 21:51:13;;;;;;;;;;;;;;;12.87;55.49;99477.56;433052;1270;99250;-41
2022/09/05 22:01:18;;;;;;;5.50;2.10;;;;;;;12.59;55.85;99464.09;432810;1270;112398;-41
2022/09/05 22:21:54;;;;;;;4.00;2.00;;;;;;;11.80;56.98;99449.60;433359;1270;99241;-41
2022/09/05 22:32:02;;;;;;;6.00;2.00;;;;;;;11.73;57.68;99434.77;433161;1270;107813;-42
2022/09/05 22:42:08;;;;;;;4.00;2.10;;;;;;;11.67;58.13;99438.40;433376;1269;98942;-43
2022/09/05 22:52:17;;;;;;;4.30;2.40;;;;;;;11.47;58.58;99442.39;433174;1269;112386;-45
2022/09/05 23:02:24;;;;;;;8.80;3.00;;;;;;;11.14;59.06;99445.92;433168;1270;109920;-42
2022/09/05 23:12:35;;;;;;;7.70;2.60;;;;;;;10.87;59.61;99439.64;432624;1270;98837;-42
2022/09/05 23:32:50;;;;;;;4.70;3.50;;;;;;;10.77;60.34;99426.54;432602;1269;99263;-43
2022/09/05 23:53:05;;;;;;;5.00;2.90;;;;;;;10.28;61.21;99426.77;433004;1269;108788;-42
